sensor_id;sensor_type;location;lat;lon;timestamp;pressure;altitude;pressure_sealevel;temperature;humidity
10310;BME280;5200;43.236;27.986;2023-05-25T00:02:16;99901.06;;;14.14;100.00
10310;BME280;5200;43.236;27.986;2023-05-25T00:04:44;99874.72;;;13.96;100.00
10310;BME280;5200;43.236;27.986;2023-05-25T00:07:12;99865.31;;;13.94;100.00
10310;BME280;5200;43.236;27.986;2023-05-25T00:09:40;99895.59;;;14.08;100.00
10310;BME280;5200;43.236;27.986;2023-05-25T00:12:09;99874.72;;;13.96;100.00
10310;BME280;5200;43.236;27.986;2023-05-25T00:14:36;99875.88;;;13.94;100.00
10310;BME280;5200;43.236;27.986;2023-05-25T00:17:04;99886.66;;;14.01;100.00
10310;BME280;5200;43.236;27.986;2023-05-25T00:19:34;99869.09;;;13.83;100.00
10310;BME280;5200;43.236;27.986;2023-05-25T00:22:02;99895.53;;;13.83;100.00
10310;BME280;5200;43.236;27.986;2023-05-25T00:24:29;99892.06;;;13.83;100.00
10310;BME280;5200;43.236;27.986;2023-05-25T00:26:56;99889.09;;;13.86;100.00
10310;BME280;5200;43.236;27.986;2023-05-25T00:29:23;99890.59;;;13.88;100.00
10310;BME280;5200;43.236;27.986;2023-05-25T00:31:50;99888.31;;;14.02;100.00
10310;BME280;5200;43.236;27.986;2023-05-25T00:34:17;99888.97;;;14.12;100.00
10310;BME280;5200;43.236;27.986;2023-05-25T00:36:44;99888.31;;;14.02;100.00
10310;BME280;5200;43.236;27.986;2023-05-25T00:39:14;99902.66;;;13.91;100.00
10310;BME280;5200;43.236;27.986;2023-05-25T00:41:43;99904.31;;;13.92;100.00
10310;BME280;5200;43.236;27.986;2023-05-25T00:44:10;99901.66;;;13.92;100.00
10310;BME280;5200;43.236;27.986;2023-05-25T00:46:44;99896.56;;;13.90;100.00
10310;BME280;5200;43.236;27.986;2023-05-25T00:49:13;99887.28;;;13.94;100.00
10310;BME280;5200;43.236;27.986;2023-05-25T00:51:41;99895.53;;;13.83;100.00
10310;BME280;5200;43.236;27.986;2023-05-25T00:54:11;99890.94;;;13.93;100.00
10310;BME280;5200;43.236;27.986;2023-05-25T00:56:43;99883.34;;;13.99;100.00
10310;BME280;5200;43.236;27.986;2023-05-25T00:59:16;99878.72;;;13.92;100.00
10310;BME280;5200;43.236;27.986;2023-05-25T01:01:44;99884.31;;;13.89;100.00
10310;BME280;5200;43.236;27.986;2023-05-25T01:04:15;99893.72;;;13.84;100.00
10310;BME280;5200;43.236;27.986;2023-05-25T01:06:46;99880.66;;;13.74;100.00
10310;BME280;5200;43.236;27.986;2023-05-25T01:09:16;99884.44;;;13.80;100.00
10310;BME280;5200;43.236;27.986;2023-05-25T01:11:48;99886.59;;;13.84;100.00
10310;BME280;5200;43.236;27.986;2023-05-25T01:14:17;99888.28;;;13.85;100.00
10310;BME280;5200;43.236;27.986;2023-05-25T01:16:45;99883.63;;;13.87;100.00
10310;BME280;5200;43.236;27.986;2023-05-25T01:19:13;99880.34;;;13.85;100.00
10310;BME280;5200;43.236;27.986;2023-05-25T01:21:44;99885.78;;;13.84;100.00
10310;BME280;5200;43.236;27.986;2023-05-25T01:24:20;99875.22;;;13.84;100.00
10310;BME280;5200;43.236;27.986;2023-05-25T01:26:54;99883.81;;;13.86;100.00
10310;BME280;5200;43.236;27.986;2023-05-25T01:29:22;99879.50;;;13.77;100.00
10310;BME280;5200;43.236;27.986;2023-05-25T01:31:51;99875.34;;;13.74;100.00
10310;BME280;5200;43.236;27.986;2023-05-25T01:34:20;99879.97;;;13.72;100.00
10310;BME280;5200;43.236;27.986;2023-05-25T01:36:48;99874.34;;;13.67;100.00
10310;BME280;5200;43.236;27.986;2023-05-25T01:39:15;99882.50;;;13.90;100.00
10310;BME280;5200;43.236;27.986;2023-05-25T01:41:42;99871.09;;;13.98;100.00
10310;BME280;5200;43.236;27.986;2023-05-25T01:44:09;99863.84;;;14.00;100.00
10310;BME280;5200;43.236;27.986;2023-05-25T01:46:37;99871.78;;;14.08;100.00
10310;BME280;5200;43.236;27.986;2023-05-25T01:49:15;99872.44;;;14.02;100.00
10310;BME280;5200;43.236;27.986;2023-05-25T01:51:52;99873.09;;;13.95;100.00
10310;BME280;5200;43.236;27.986;2023-05-25T01:54:22;99867.28;;;13.92;100.00
10310;BME280;5200;43.236;27.986;2023-05-25T01:56:51;99869.78;;;13.93;100.00
10310;BME280;5200;43.236;27.986;2023-05-25T01:59:20;99865.63;;;13.91;100.00
10310;BME280;5200;43.236;27.986;2023-05-25T02:01:49;99875.06;;;13.85;100.00
10310;BME280;5200;43.236;27.986;2023-05-25T02:04:17;99865.13;;;13.87;100.00
10310;BME280;5200;43.236;27.986;2023-05-25T02:06:47;99880.50;;;13.84;100.00
10310;BME280;5200;43.236;27.986;2023-05-25T02:09:15;99870.06;;;13.74;100.00
10310;BME280;5200;43.236;27.986;2023-05-25T02:11:42;99875.06;;;13.85;100.00
10310;BME280;5200;43.236;27.986;2023-05-25T02:14:09;99880.84;;;13.81;100.00
10310;BME280;5200;43.236;27.986;2023-05-25T02:16:36;99875.03;;;13.77;100.00
10310;BME280;5200;43.236;27.986;2023-05-25T02:19:02;99884.63;;;13.78;100.00
10310;BME280;5200;43.236;27.986;2023-05-25T02:21:29;99876.19;;;13.74;100.00
10310;BME280;5200;43.236;27.986;2023-05-25T02:23:57;99883.91;;;13.68;100.00
10310;BME280;5200;43.236;27.986;2023-05-25T02:26:25;99886.06;;;13.64;100.00
10310;BME280;5200;43.236;27.986;2023-05-25T02:28:52;99882.09;;;13.68;100.00
10310;BME280;5200;43.236;27.986;2023-05-25T02:31:18;99883.78;;;13.78;100.00
10310;BME280;5200;43.236;27.986;2023-05-25T02:33:45;99892.56;;;13.94;100.00
10310;BME280;5200;43.236;27.986;2023-05-25T02:36:12;99898.03;;;14.01;100.00
10310;BME280;5200;43.236;27.986;2023-05-25T02:38:39;99897.75;;;14.04;100.00
10310;BME280;5200;43.236;27.986;2023-05-25T02:41:06;99896.88;;;14.04;100.00
10310;BME280;5200;43.236;27.986;2023-05-25T02:43:34;99904.81;;;14.04;100.00
10310;BME280;5200;43.236;27.986;2023-05-25T02:46:01;99905.50;;;14.06;100.00
10310;BME280;5200;43.236;27.986;2023-05-25T02:48:28;99907.84;;;14.09;100.00
10310;BME280;5200;43.236;27.986;2023-05-25T02:50:55;99911.78;;;14.13;100.00
10310;BME280;5200;43.236;27.986;2023-05-25T02:53:22;99907.16;;;14.15;100.00
10310;BME280;5200;43.236;27.986;2023-05-25T02:55:49;99877.41;;;14.05;100.00
10310;BME280;5200;43.236;27.986;2023-05-25T02:58:15;99909.50;;;14.34;100.00
10310;BME280;5200;43.236;27.986;2023-05-25T03:00:44;99921.09;;;14.50;100.00
10310;BME280;5200;43.236;27.986;2023-05-25T03:03:11;99926.75;;;14.71;100.00
10310;BME280;5200;43.236;27.986;2023-05-25T03:05:37;99920.97;;;14.84;100.00
10310;BME280;5200;43.236;27.986;2023-05-25T03:08:05;99914.31;;;14.96;100.00
10310;BME280;5200;43.236;27.986;2023-05-25T03:10:31;99917.78;;;15.05;100.00
10310;BME280;5200;43.236;27.986;2023-05-25T03:12:58;99922.75;;;15.08;100.00
10310;BME280;5200;43.236;27.986;2023-05-25T03:15:25;99915.44;;;15.10;100.00
10310;BME280;5200;43.236;27.986;2023-05-25T03:17:53;99919.25;;;15.16;100.00
10310;BME280;5200;43.236;27.986;2023-05-25T03:20:25;99921.03;;;15.23;100.00
10310;BME280;5200;43.236;27.986;2023-05-25T03:22:52;99912.06;;;15.41;100.00
10310;BME280;5200;43.236;27.986;2023-05-25T03:25:18;99916.81;;;15.93;100.00
10310;BME280;5200;43.236;27.986;2023-05-25T03:27:45;99919.25;;;16.49;100.00
10310;BME280;5200;43.236;27.986;2023-05-25T03:30:13;99923.53;;;16.73;100.00
10310;BME280;5200;43.236;27.986;2023-05-25T03:32:39;99926.34;;;16.95;100.00
10310;BME280;5200;43.236;27.986;2023-05-25T03:35:08;99921.59;;;17.05;100.00
10310;BME280;5200;43.236;27.986;2023-05-25T03:37:35;99929.88;;;17.40;100.00
10310;BME280;5200;43.236;27.986;2023-05-25T03:40:01;99917.50;;;17.62;100.00
10310;BME280;5200;43.236;27.986;2023-05-25T03:42:29;99929.72;;;17.78;100.00
10310;BME280;5200;43.236;27.986;2023-05-25T03:44:55;99928.09;;;17.77;100.00
10310;BME280;5200;43.236;27.986;2023-05-25T03:47:22;99927.75;;;17.65;100.00
10310;BME280;5200;43.236;27.986;2023-05-25T03:49:49;99929.38;;;17.66;100.00
10310;BME280;5200;43.236;27.986;2023-05-25T03:52:17;99919.31;;;17.61;100.00
10310;BME280;5200;43.236;27.986;2023-05-25T03:54:44;99934.44;;;17.75;100.00
10310;BME280;5200;43.236;27.986;2023-05-25T03:57:11;99932.16;;;17.87;100.00
10310;BME280;5200;43.236;27.986;2023-05-25T03:59:37;99925.56;;;17.83;100.00
10310;BME280;5200;43.236;27.986;2023-05-25T04:02:04;99931.56;;;17.92;100.00
10310;BME280;5200;43.236;27.986;2023-05-25T04:04:31;99931.09;;;18.25;100.00
10310;BME280;5200;43.236;27.986;2023-05-25T04:06:58;99937.31;;;18.96;100.00
10310;BME280;5200;43.236;27.986;2023-05-25T04:09:26;99932.88;;;19.80;100.00
10310;BME280;5200;43.236;27.986;2023-05-25T04:11:53;99940.31;;;20.79;100.00
10310;BME280;5200;43.236;27.986;2023-05-25T04:14:20;99928.78;;;21.77;94.00
10310;BME280;5200;43.236;27.986;2023-05-25T04:16:46;99925.59;;;22.64;77.85
10310;BME280;5200;43.236;27.986;2023-05-25T04:19:13;99928.59;;;23.42;73.62
10310;BME280;5200;43.236;27.986;2023-05-25T04:21:40;99921.59;;;24.09;68.12
10310;BME280;5200;43.236;27.986;2023-05-25T04:24:07;99936.16;;;24.73;63.58
10310;BME280;5200;43.236;27.986;2023-05-25T04:26:35;99930.56;;;25.34;59.98
10310;BME280;5200;43.236;27.986;2023-05-25T04:29:03;99922.34;;;25.81;56.17
10310;BME280;5200;43.236;27.986;2023-05-25T04:31:31;99925.16;;;26.14;54.13
10310;BME280;5200;43.236;27.986;2023-05-25T04:33:58;99927.63;;;26.33;53.49
10310;BME280;5200;43.236;27.986;2023-05-25T04:36:26;99928.88;;;26.42;54.37
10310;BME280;5200;43.236;27.986;2023-05-25T04:38:54;99936.94;;;26.54;55.18
10310;BME280;5200;43.236;27.986;2023-05-25T04:41:20;99939.53;;;26.66;53.05
10310;BME280;5200;43.236;27.986;2023-05-25T04:43:49;99935.69;;;26.62;52.89
10310;BME280;5200;43.236;27.986;2023-05-25T04:46:18;99941.56;;;26.42;53.02
10310;BME280;5200;43.236;27.986;2023-05-25T04:48:45;99951.75;;;25.94;54.03
10310;BME280;5200;43.236;27.986;2023-05-25T04:51:12;99938.16;;;25.37;55.63
10310;BME280;5200;43.236;27.986;2023-05-25T04:53:38;99953.53;;;24.47;58.04
10310;BME280;5200;43.236;27.986;2023-05-25T04:56:05;99951.78;;;23.92;61.17
10310;BME280;5200;43.236;27.986;2023-05-25T04:58:32;99946.25;;;23.69;63.82
10310;BME280;5200;43.236;27.986;2023-05-25T05:01:01;99958.69;;;23.45;64.44
10310;BME280;5200;43.236;27.986;2023-05-25T05:03:27;99950.88;;;23.25;66.02
10310;BME280;5200;43.236;27.986;2023-05-25T05:05:55;99959.19;;;23.16;66.89
10310;BME280;5200;43.236;27.986;2023-05-25T05:08:22;99957.44;;;23.29;66.13
10310;BME280;5200;43.236;27.986;2023-05-25T05:10:49;99959.53;;;23.27;65.93
10310;BME280;5200;43.236;27.986;2023-05-25T05:13:15;99961.91;;;23.35;65.05
10310;BME280;5200;43.236;27.986;2023-05-25T05:15:42;99959.25;;;23.53;64.08
10310;BME280;5200;43.236;27.986;2023-05-25T05:18:10;99967.00;;;23.61;63.75
10310;BME280;5200;43.236;27.986;2023-05-25T05:20:38;99966.81;;;24.12;61.26
10310;BME280;5200;43.236;27.986;2023-05-25T05:23:05;99967.84;;;24.83;60.36
10310;BME280;5200;43.236;27.986;2023-05-25T05:25:32;99964.47;;;25.11;56.96
10310;BME280;5200;43.236;27.986;2023-05-25T05:27:59;99963.56;;;25.41;55.58
10310;BME280;5200;43.236;27.986;2023-05-25T05:30:25;99963.72;;;25.74;54.95
10310;BME280;5200;43.236;27.986;2023-05-25T05:32:52;99964.34;;;26.05;53.90
10310;BME280;5200;43.236;27.986;2023-05-25T05:35:20;99967.88;;;26.51;54.20
10310;BME280;5200;43.236;27.986;2023-05-25T05:37:47;99968.00;;;26.73;51.99
10310;BME280;5200;43.236;27.986;2023-05-25T05:40:14;99967.56;;;27.15;50.86
10310;BME280;5200;43.236;27.986;2023-05-25T05:42:41;99963.94;;;27.44;50.71
10310;BME280;5200;43.236;27.986;2023-05-25T05:45:09;99972.84;;;27.83;50.28
10310;BME280;5200;43.236;27.986;2023-05-25T05:47:35;99965.09;;;27.92;49.13
10310;BME280;5200;43.236;27.986;2023-05-25T05:50:03;99971.38;;;27.75;49.12
10310;BME280;5200;43.236;27.986;2023-05-25T05:52:31;99970.59;;;27.58;49.75
10310;BME280;5200;43.236;27.986;2023-05-25T05:54:58;99970.03;;;27.34;49.77
10310;BME280;5200;43.236;27.986;2023-05-25T05:57:24;99977.41;;;27.05;50.46
10310;BME280;5200;43.236;27.986;2023-05-25T05:59:52;99982.16;;;26.64;52.51
10310;BME280;5200;43.236;27.986;2023-05-25T06:02:19;99982.50;;;26.10;54.41
10310;BME280;5200;43.236;27.986;2023-05-25T06:04:46;99988.31;;;25.90;55.95
10310;BME280;5200;43.236;27.986;2023-05-25T06:07:13;99983.34;;;25.99;55.66
10310;BME280;5200;43.236;27.986;2023-05-25T06:09:41;99980.88;;;26.09;54.89
10310;BME280;5200;43.236;27.986;2023-05-25T06:12:08;99975.50;;;26.26;53.04
10310;BME280;5200;43.236;27.986;2023-05-25T06:14:38;99991.97;;;26.12;53.31
10310;BME280;5200;43.236;27.986;2023-05-25T06:17:05;99995.91;;;25.81;53.80
10310;BME280;5200;43.236;27.986;2023-05-25T06:19:32;99996.31;;;25.61;54.79
10310;BME280;5200;43.236;27.986;2023-05-25T06:21:58;99995.03;;;25.64;54.24
10310;BME280;5200;43.236;27.986;2023-05-25T06:24:25;99999.44;;;25.70;53.74
10310;BME280;5200;43.236;27.986;2023-05-25T06:26:53;99998.66;;;25.46;53.40
10310;BME280;5200;43.236;27.986;2023-05-25T06:29:20;99995.84;;;25.05;55.05
10310;BME280;5200;43.236;27.986;2023-05-25T06:31:47;100003.09;;;25.05;55.33
10310;BME280;5200;43.236;27.986;2023-05-25T06:34:13;100003.31;;;24.92;56.44
10310;BME280;5200;43.236;27.986;2023-05-25T06:36:40;100003.09;;;24.93;56.24
10310;BME280;5200;43.236;27.986;2023-05-25T06:39:07;99977.75;;;24.59;55.97
10310;BME280;5200;43.236;27.986;2023-05-25T06:41:36;99982.19;;;24.53;56.84
10310;BME280;5200;43.236;27.986;2023-05-25T06:44:04;99988.66;;;24.45;57.67
10310;BME280;5200;43.236;27.986;2023-05-25T06:46:31;100012.19;;;24.20;57.80
10310;BME280;5200;43.236;27.986;2023-05-25T06:48:58;100012.38;;;23.88;59.90
10310;BME280;5200;43.236;27.986;2023-05-25T06:51:25;100009.56;;;23.83;60.21
10310;BME280;5200;43.236;27.986;2023-05-25T06:53:54;100008.16;;;23.80;60.31
10310;BME280;5200;43.236;27.986;2023-05-25T06:56:21;100016.56;;;24.02;59.66
10310;BME280;5200;43.236;27.986;2023-05-25T06:58:48;100008.53;;;24.14;58.50
10310;BME280;5200;43.236;27.986;2023-05-25T07:01:16;100002.81;;;24.11;57.95
10310;BME280;5200;43.236;27.986;2023-05-25T07:03:43;100016.31;;;24.22;58.58
10310;BME280;5200;43.236;27.986;2023-05-25T07:06:10;100011.28;;;24.26;59.10
10310;BME280;5200;43.236;27.986;2023-05-25T07:08:37;100005.00;;;24.32;58.95
10310;BME280;5200;43.236;27.986;2023-05-25T07:11:04;100008.13;;;24.47;59.74
10310;BME280;5200;43.236;27.986;2023-05-25T07:13:33;99987.50;;;24.41;59.71
10310;BME280;5200;43.236;27.986;2023-05-25T07:16:00;99987.00;;;24.63;58.93
10310;BME280;5200;43.236;27.986;2023-05-25T07:18:28;99994.69;;;25.37;57.95
10310;BME280;5200;43.236;27.986;2023-05-25T07:20:55;99999.72;;;25.68;56.81
10310;BME280;5200;43.236;27.986;2023-05-25T07:23:22;100010.50;;;25.45;56.92
10310;BME280;5200;43.236;27.986;2023-05-25T07:25:49;100010.03;;;25.36;57.25
10310;BME280;5200;43.236;27.986;2023-05-25T07:28:16;99997.16;;;25.38;57.62
10310;BME280;5200;43.236;27.986;2023-05-25T07:30:42;99997.75;;;25.28;58.46
10310;BME280;5200;43.236;27.986;2023-05-25T07:33:09;100007.81;;;25.21;59.63
10310;BME280;5200;43.236;27.986;2023-05-25T07:35:37;100005.59;;;25.18;60.14
10310;BME280;5200;43.236;27.986;2023-05-25T07:38:04;100002.66;;;25.31;59.50
10310;BME280;5200;43.236;27.986;2023-05-25T07:40:31;100005.47;;;25.37;59.24
10310;BME280;5200;43.236;27.986;2023-05-25T07:42:58;100006.28;;;25.25;59.05
10310;BME280;5200;43.236;27.986;2023-05-25T07:45:25;99998.56;;;25.29;59.60
10310;BME280;5200;43.236;27.986;2023-05-25T07:47:52;100006.28;;;25.37;59.60
10310;BME280;5200;43.236;27.986;2023-05-25T07:50:18;100003.34;;;25.62;59.13
10310;BME280;5200;43.236;27.986;2023-05-25T07:52:46;100003.91;;;25.76;57.62
10310;BME280;5200;43.236;27.986;2023-05-25T07:55:13;100002.97;;;25.94;57.63
10310;BME280;5200;43.236;27.986;2023-05-25T07:57:40;99989.09;;;26.02;56.65
10310;BME280;5200;43.236;27.986;2023-05-25T08:00:08;100003.56;;;26.25;55.09
10310;BME280;5200;43.236;27.986;2023-05-25T08:02:35;100000.31;;;26.40;55.25
10310;BME280;5200;43.236;27.986;2023-05-25T08:05:02;99997.13;;;26.43;55.39
10310;BME280;5200;43.236;27.986;2023-05-25T08:07:31;100002.56;;;26.60;55.16
10310;BME280;5200;43.236;27.986;2023-05-25T08:09:59;100007.16;;;26.76;54.29
10310;BME280;5200;43.236;27.986;2023-05-25T08:12:26;100003.50;;;26.82;53.74
10310;BME280;5200;43.236;27.986;2023-05-25T08:14:54;100004.72;;;26.91;52.56
10310;BME280;5200;43.236;27.986;2023-05-25T08:17:20;99998.50;;;27.08;53.60
10310;BME280;5200;43.236;27.986;2023-05-25T08:19:47;99992.81;;;27.21;51.82
10310;BME280;5200;43.236;27.986;2023-05-25T08:22:14;99994.09;;;27.35;51.36
10310;BME280;5200;43.236;27.986;2023-05-25T08:24:41;99991.88;;;27.15;52.18
10310;BME280;5200;43.236;27.986;2023-05-25T08:27:09;99997.19;;;27.10;52.93
10310;BME280;5200;43.236;27.986;2023-05-25T08:29:36;99995.94;;;27.35;52.64
10310;BME280;5200;43.236;27.986;2023-05-25T08:32:03;99994.97;;;27.63;50.85
10310;BME280;5200;43.236;27.986;2023-05-25T08:34:30;99987.31;;;27.77;49.50
10310;BME280;5200;43.236;27.986;2023-05-25T08:36:57;99999.78;;;28.00;48.66
10310;BME280;5200;43.236;27.986;2023-05-25T08:39:23;100006.72;;;28.13;48.30
10310;BME280;5200;43.236;27.986;2023-05-25T08:41:51;100017.84;;;28.16;47.06
10310;BME280;5200;43.236;27.986;2023-05-25T08:44:19;100020.53;;;28.16;46.52
10310;BME280;5200;43.236;27.986;2023-05-25T08:46:47;100016.66;;;28.56;45.59
10310;BME280;5200;43.236;27.986;2023-05-25T08:49:15;100012.16;;;29.04;45.56
10310;BME280;5200;43.236;27.986;2023-05-25T08:51:44;100014.06;;;29.41;44.18
10310;BME280;5200;43.236;27.986;2023-05-25T08:54:16;100015.38;;;29.76;42.81
10310;BME280;5200;43.236;27.986;2023-05-25T08:56:48;100004.00;;;29.84;42.17
10310;BME280;5200;43.236;27.986;2023-05-25T08:59:29;99997.03;;;29.99;41.64
10310;BME280;5200;43.236;27.986;2023-05-25T09:02:04;100005.16;;;29.51;41.52
10310;BME280;5200;43.236;27.986;2023-05-25T09:04:34;100006.22;;;29.02;42.23
10310;BME280;5200;43.236;27.986;2023-05-25T09:07:01;100005.03;;;28.88;42.25
10310;BME280;5200;43.236;27.986;2023-05-25T09:09:29;99998.06;;;28.43;43.08
10310;BME280;5200;43.236;27.986;2023-05-25T09:11:56;99996.25;;;28.21;43.51
10310;BME280;5200;43.236;27.986;2023-05-25T09:14:24;100001.78;;;28.32;44.04
10310;BME280;5200;43.236;27.986;2023-05-25T09:16:52;100000.44;;;28.61;42.70
10310;BME280;5200;43.236;27.986;2023-05-25T09:19:19;100000.09;;;28.85;40.89
10310;BME280;5200;43.236;27.986;2023-05-25T09:21:46;99992.16;;;28.73;41.45
10310;BME280;5200;43.236;27.986;2023-05-25T09:24:13;99982.91;;;28.69;42.03
10310;BME280;5200;43.236;27.986;2023-05-25T09:26:41;99988.09;;;28.43;42.82
10310;BME280;5200;43.236;27.986;2023-05-25T09:29:09;99983.09;;;28.30;40.44
10310;BME280;5200;43.236;27.986;2023-05-25T09:31:38;99975.50;;;28.05;42.42
10310;BME280;5200;43.236;27.986;2023-05-25T09:34:11;99982.75;;;27.99;43.54
10310;BME280;5200;43.236;27.986;2023-05-25T09:36:38;99979.81;;;28.01;43.80
10310;BME280;5200;43.236;27.986;2023-05-25T09:39:07;99977.88;;;27.79;44.71
10310;BME280;5200;43.236;27.986;2023-05-25T09:41:34;99981.81;;;27.89;46.40
10310;BME280;5200;43.236;27.986;2023-05-25T09:44:03;99975.22;;;28.01;45.91
10310;BME280;5200;43.236;27.986;2023-05-25T09:46:30;99972.56;;;28.07;46.29
10310;BME280;5200;43.236;27.986;2023-05-25T09:49:01;99974.75;;;28.10;46.41
10310;BME280;5200;43.236;27.986;2023-05-25T09:51:29;99976.13;;;28.12;46.11
10310;BME280;5200;43.236;27.986;2023-05-25T09:53:57;99973.22;;;27.92;46.16
10310;BME280;5200;43.236;27.986;2023-05-25T09:56:25;99978.78;;;28.07;46.43
10310;BME280;5200;43.236;27.986;2023-05-25T09:58:52;99974.31;;;27.96;45.66
10310;BME280;5200;43.236;27.986;2023-05-25T10:01:19;99976.81;;;27.58;47.08
10310;BME280;5200;43.236;27.986;2023-05-25T10:03:46;99976.00;;;27.36;48.03
10310;BME280;5200;43.236;27.986;2023-05-25T10:06:13;99974.44;;;27.40;46.73
10310;BME280;5200;43.236;27.986;2023-05-25T10:08:42;99982.91;;;27.49;46.71
10310;BME280;5200;43.236;27.986;2023-05-25T10:11:12;99987.09;;;27.78;46.49
10310;BME280;5200;43.236;27.986;2023-05-25T10:13:39;99978.13;;;27.95;45.67
10310;BME280;5200;43.236;27.986;2023-05-25T10:16:08;99991.94;;;27.98;45.20
10310;BME280;5200;43.236;27.986;2023-05-25T10:18:42;99990.34;;;27.80;44.61
10310;BME280;5200;43.236;27.986;2023-05-25T10:21:12;99990.69;;;27.84;44.41
10310;BME280;5200;43.236;27.986;2023-05-25T10:23:44;100000.47;;;27.68;43.77
10310;BME280;5200;43.236;27.986;2023-05-25T10:26:18;99994.72;;;27.43;43.97
10310;BME280;5200;43.236;27.986;2023-05-25T10:28:49;99984.38;;;27.56;44.13
10310;BME280;5200;43.236;27.986;2023-05-25T10:31:17;99982.19;;;27.75;43.25
10310;BME280;5200;43.236;27.986;2023-05-25T10:33:45;99972.59;;;27.85;43.21
10310;BME280;5200;43.236;27.986;2023-05-25T10:36:12;99965.22;;;28.02;42.87
10310;BME280;5200;43.236;27.986;2023-05-25T10:38:39;99961.50;;;27.86;42.82
10310;BME280;5200;43.236;27.986;2023-05-25T10:41:10;99964.84;;;27.71;42.88
10310;BME280;5200;43.236;27.986;2023-05-25T10:43:38;99974.00;;;27.48;43.98
10310;BME280;5200;43.236;27.986;2023-05-25T10:46:05;99961.16;;;27.38;44.15
10310;BME280;5200;43.236;27.986;2023-05-25T10:48:36;99960.31;;;27.55;43.99
10310;BME280;5200;43.236;27.986;2023-05-25T10:51:04;99956.53;;;27.56;44.86
10310;BME280;5200;43.236;27.986;2023-05-25T10:53:31;99955.31;;;27.47;44.81
10310;BME280;5200;43.236;27.986;2023-05-25T10:56:01;99964.97;;;27.59;44.35
10310;BME280;5200;43.236;27.986;2023-05-25T10:58:30;99951.94;;;27.78;44.42
10310;BME280;5200;43.236;27.986;2023-05-25T11:01:00;99961.28;;;27.88;44.39
10310;BME280;5200;43.236;27.986;2023-05-25T11:03:55;99961.03;;;28.16;42.29
10310;BME280;5200;43.236;27.986;2023-05-25T11:09:28;99956.75;;;28.20;42.19
10310;BME280;5200;43.236;27.986;2023-05-25T11:12:00;99963.34;;;28.30;42.60
10310;BME280;5200;43.236;27.986;2023-05-25T11:14:30;99963.75;;;28.43;41.71
10310;BME280;5200;43.236;27.986;2023-05-25T11:17:04;99964.81;;;28.42;42.13
10310;BME280;5200;43.236;27.986;2023-05-25T11:19:41;99960.63;;;28.30;46.03
10310;BME280;5200;43.236;27.986;2023-05-25T11:22:15;99954.41;;;28.02;44.41
10310;BME280;5200;43.236;27.986;2023-05-25T11:24:46;99955.34;;;27.69;45.17
10310;BME280;5200;43.236;27.986;2023-05-25T11:27:13;99945.59;;;27.24;45.13
10310;BME280;5200;43.236;27.986;2023-05-25T11:29:42;99943.28;;;26.98;43.79
10310;BME280;5200;43.236;27.986;2023-05-25T11:32:13;99942.31;;;26.71;44.88
10310;BME280;5200;43.236;27.986;2023-05-25T11:34:41;99936.34;;;26.69;45.26
10310;BME280;5200;43.236;27.986;2023-05-25T11:37:11;99938.66;;;26.60;45.44
10310;BME280;5200;43.236;27.986;2023-05-25T11:39:40;99950.88;;;26.34;46.03
10310;BME280;5200;43.236;27.986;2023-05-25T11:42:08;99953.38;;;25.95;47.04
10310;BME280;5200;43.236;27.986;2023-05-25T11:44:36;99933.66;;;25.66;47.64
10310;BME280;5200;43.236;27.986;2023-05-25T11:47:06;99939.41;;;25.46;48.55
10310;BME280;5200;43.236;27.986;2023-05-25T11:49:38;99930.88;;;24.90;49.20
10310;BME280;5200;43.236;27.986;2023-05-25T11:52:08;99938.25;;;24.71;50.12
10310;BME280;5200;43.236;27.986;2023-05-25T11:54:37;99902.44;;;24.59;52.55
10310;BME280;5200;43.236;27.986;2023-05-25T11:57:13;99923.88;;;24.89;53.31
10310;BME280;5200;43.236;27.986;2023-05-25T11:59:40;99921.88;;;25.08;53.04
10310;BME280;5200;43.236;27.986;2023-05-25T12:02:14;99913.09;;;25.13;53.13
10310;BME280;5200;43.236;27.986;2023-05-25T12:04:51;99924.00;;;25.29;52.61
10310;BME280;5200;43.236;27.986;2023-05-25T12:07:18;99934.28;;;25.21;52.33
10310;BME280;5200;43.236;27.986;2023-05-25T12:09:45;99933.81;;;25.12;52.70
10310;BME280;5200;43.236;27.986;2023-05-25T12:12:12;99930.66;;;25.03;52.97
10310;BME280;5200;43.236;27.986;2023-05-25T12:14:45;99934.72;;;24.59;52.57
10310;BME280;5200;43.236;27.986;2023-05-25T12:17:14;99920.28;;;23.99;54.17
10310;BME280;5200;43.236;27.986;2023-05-25T12:19:41;99925.22;;;23.66;56.10
10310;BME280;5200;43.236;27.986;2023-05-25T12:22:09;99930.53;;;23.35;56.58
10310;BME280;5200;43.236;27.986;2023-05-25T12:24:36;99929.44;;;22.99;59.01
10310;BME280;5200;43.236;27.986;2023-05-25T12:27:03;99938.25;;;22.82;60.45
10310;BME280;5200;43.236;27.986;2023-05-25T12:29:31;99937.13;;;22.64;61.71
10310;BME280;5200;43.236;27.986;2023-05-25T12:32:01;99928.91;;;22.34;66.90
10310;BME280;5200;43.236;27.986;2023-05-25T12:34:30;99917.16;;;21.97;70.12
10310;BME280;5200;43.236;27.986;2023-05-25T12:36:57;99943.50;;;22.00;72.26
10310;BME280;5200;43.236;27.986;2023-05-25T12:39:33;99924.59;;;21.94;73.16
10310;BME280;5200;43.236;27.986;2023-05-25T12:42:04;99931.88;;;22.12;73.96
10310;BME280;5200;43.236;27.986;2023-05-25T12:44:32;99951.13;;;22.41;73.82
10310;BME280;5200;43.236;27.986;2023-05-25T12:47:09;99949.41;;;22.53;72.86
10310;BME280;5200;43.236;27.986;2023-05-25T12:49:38;99962.88;;;22.72;70.94
10310;BME280;5200;43.236;27.986;2023-05-25T12:52:05;99968.16;;;22.78;69.71
10310;BME280;5200;43.236;27.986;2023-05-25T12:54:37;99980.19;;;22.69;68.09
10310;BME280;5200;43.236;27.986;2023-05-25T12:57:09;99962.03;;;22.46;69.52
10310;BME280;5200;43.236;27.986;2023-05-25T12:59:37;99976.59;;;22.57;68.38
10310;BME280;5200;43.236;27.986;2023-05-25T13:02:04;99981.88;;;22.70;65.45
10310;BME280;5200;43.236;27.986;2023-05-25T13:04:32;99983.06;;;22.74;65.05